Oelwein, IA (50662)

07:00 CST le 19 janvier 2017 (GMT -0600)
Oelwein Municipal | | Change Station
Avis météorologiques actifs: Dense Fog Advisory

Alt. 1076 ft 42.68 °N, 91.97 °W | Updated 5 minutes ago

Brouillard
Brouillard
30 ° F
Paraît 23 ° F
N
7
Vent Variable Vent de SE

Aujourd'hui
Haut(e) -- | Bas -- ° F
--% Risque de précip.
Hier
Haut(e) -- | Bas -- ° F
Precip. -- pouce
Pression 29.89 pouce
Visibilité 0.2 Miles terrestres
Nuages Couvert 200 ft
Refroidissement éolien 23 ° F
Point de rosée 30 ° F
Humidité 100%
Précipitations 0.00 pouce
Profondeur de la couche neigeuse Non disponible.
7:32 AM 5:04 PM
Lune gibbeuse décroissante, 54% visible
METAR KOLZ 191255Z AUTO 14006KT M1/4SM FZFG OVC002 M01/M01 A2989 RMK AO2
Pression 29.89 pouce
Visibilité 0.2 Miles terrestres
Nuages Couvert 200 ft
Refroidissement éolien 23 ° F
Point de rosée 30 ° F
Humidité 100%
Précipitations 0.00 pouce
Profondeur de la couche neigeuse Non disponible.
7:32 AM 5:04 PM
Lune gibbeuse décroissante, 54% visible
METAR KOLZ 191255Z AUTO 14006KT M1/4SM FZFG OVC002 M01/M01 A2989 RMK AO2

Get Your Daily Forecast Email!

Thanks for signing up!

Be on the lookout for a verification email in your inbox.

You'll start receiving the daily forecast at 8 AM.

×

10-Day Weather Forecast

Almanac

Astronomie

Jan. 19, 2017 Lever Coucher
Temps réel
Crépuscule civil
Crépuscule nautique
Crépuscule astronomique
Lune
Durée de lumière visible
Longueur du jour
Tomorrow will be .
, % of the Moon is Illuminated

Extrêmes aujourd'hui

State Highs State Lows

Community

WunderPhotos

Upload Photos

1,962,540 Photos téléchargées !

WunderBlog® & News

Nearby

Qualité de l'air

  Qualité de l'air Indice de la qualité de l'air Polluant
Not available.

Épaisseur de neige

Station Depth Altitude

Activité sismique

Ville Distance Mag. Time & Date
Minimum magnitude displayed is 2.5.

Températures des eaux côtières

Lieu Température

Stations

Stations météo à proximité

Emplacement de la station Température Refroidissement éolien Point de rosée Humidité Vent Precip. Alt. Mise à jour Type
                   

Watches & Warnings

Dense Fog Advisory
Issued: 04:29 CST Jan. 19, 2017 – National Weather Service

... Dense fog advisory remains in effect until 9 am CST this
morning...

* visibilities 1/4 mile or less.

* Motorists should be prepared for severely reduced visibilities early
this morning. In addition... where temperatures were at
freezing... the fog could deposit icy patches on untreated roads.
Exercise caution.

Precautionary/preparedness actions...

A dense fog advisory means visibilities will frequently be
reduced to less than one quarter mile. If driving... slow down...
use your headlights... and leave plenty of distance ahead of you.